This is the latest recevied weather packets stored in our database for station/object KHOP. If no packets are shown the sender has not sent any weather packets the latest 1 day(s).
| Time | Temp. | Humidity | Pressure | Rain* | Wind** | Luminosity | Snow |
|---|---|---|---|---|---|---|---|
| 1778007815 | 21.67° C | 56% | 1008.5 hPa | - | 9.39 m/s, 200° | - | - |
| 1778007214 | 20° C | 72% | 1009.1 hPa | - | 5.81 m/s, 190° | - | - |
| 1778006613 | 20° C | 72% | 1009.1 hPa | - | 5.81 m/s, 190° | - | - |
| 1778006015 | 20° C | 72% | 1009.1 hPa | - | 5.81 m/s, 190° | - | - |
| 1778005413 | 20° C | 72% | 1009.1 hPa | - | 5.81 m/s, 190° | - | - |
| 1778004811 | 20° C | 72% | 1009.1 hPa | - | 5.81 m/s, 190° | - | - |
| 1778004213 | 20° C | 72% | 1009.1 hPa | - | 5.81 m/s, 190° | - | - |
| 1778003612 | 16.67° C | 82% | 1009.5 hPa | - | 4.02 m/s, 170° | - | - |
| 1778003007 | 16.67° C | 82% | 1009.5 hPa | - | 4.02 m/s, 170° | - | - |
| 1778002410 | 16.67° C | 82% | 1009.5 hPa | - | 4.02 m/s, 170° | - | - |
| 1778001809 | 16.67° C | 82% | 1009.5 hPa | - | 4.02 m/s, 170° | - | - |
| 1778001215 | 16.67° C | 82% | 1009.5 hPa | - | 4.02 m/s, 170° | - | - |
| 1778000613 | 16.67° C | 82% | 1009.5 hPa | - | 4.02 m/s, 170° | - | - |
| 1778000013 | 16.67° C | 82% | 1009.5 hPa | - | 4.02 m/s, 150° | - | - |
| 1777999415 | 16.67° C | 82% | 1009.5 hPa | - | 4.02 m/s, 150° | - | - |
| 1777998811 | 16.67° C | 82% | 1009.5 hPa | - | 4.02 m/s, 150° | - | - |
| 1777998214 | 16.67° C | 82% | 1010.8 hPa | - | 2.24 m/s, 190° | - | - |
| 1777997611 | 16.67° C | 82% | 1010.8 hPa | - | 2.24 m/s, 190° | - | - |
| 1777997019 | 16.67° C | 82% | 1010.8 hPa | - | 2.24 m/s, 190° | - | - |
| 1777996414 | 17.78° C | 72% | 1010.8 hPa | - | 4.47 m/s, 210° | - | - |
| 1777995931 | 17.78° C | 72% | 1010.8 hPa | - | 4.47 m/s, 210° | - | - |
| 1777995211 | 17.78° C | 67% | 1010.5 hPa | - | 5.36 m/s, 190° | - | - |
| 1777994612 | 18.89° C | 63% | 1010.5 hPa | - | 4.02 m/s, 190° | - | - |
| 1777994011 | 18.89° C | 63% | 1010.5 hPa | - | 4.02 m/s, 190° | - | - |
| 1777993409 | 18.89° C | 63% | 1010.5 hPa | - | 4.02 m/s, 190° | - | - |
* Rain since midnight (hover to see other rain measurements)
** Current wind speed in m/s (hover to see current wind gust speed)